Arcola, Missouri
Current Conditions -  °F | °C
As of 7:52 AM on Friday 31 Oct 2014 (Local Time) from KSGF Reporting Station
Overcast Overcast  
Wind Chill: 42°   Ceiling: 2200
Heat Index: 48°   Visibility: 10mi
Dew Point: 39°   Wind: 16mph
Humidity: 71%   Direction: 340°NNW
Pressure: 30.25"   Gusts: 21mph
Location:  37.55°N, 93.88°W
Report Text: KSGF 311252Z 34014G18KT 10SM OVC022 09/04 A3025 RMK AO2 PK WND 01026/1157 SLP243 T00890039
Loading
Personal Weather Stations






























Interactive Weather Map New forecast layout! Learn more

10-Day Weather Forecast

Advertisements
Track Severe Weather on mobile